createdAt,value
2019-01-12T00:00:12.938Z,952.96
2019-01-12T00:01:12.927Z,952.99
2019-01-12T00:02:12.913Z,952.96
2019-01-12T00:03:12.905Z,952.92
2019-01-12T00:04:12.891Z,952.90
2019-01-12T00:05:12.878Z,952.83
2019-01-12T00:06:12.871Z,952.87
2019-01-12T00:07:12.855Z,952.90
2019-01-12T00:08:12.843Z,952.93
2019-01-12T00:09:12.836Z,952.90
2019-01-12T00:10:12.817Z,952.95
2019-01-12T00:11:12.807Z,952.92
2019-01-12T00:12:12.796Z,952.93
2019-01-12T00:13:12.786Z,952.93
2019-01-12T00:14:12.776Z,952.95
2019-01-12T00:15:12.764Z,953.02
2019-01-12T00:16:12.750Z,952.97
2019-01-12T00:17:12.738Z,952.96
2019-01-12T00:18:12.724Z,953.03
2019-01-12T00:19:12.714Z,953.00
2019-01-12T00:20:12.701Z,953.00
2019-01-12T00:21:12.733Z,953.01
2019-01-12T00:22:12.673Z,953.00
2019-01-12T00:23:12.667Z,953.07
2019-01-12T00:24:12.654Z,953.10
2019-01-12T00:25:12.642Z,953.08
2019-01-12T00:26:12.630Z,953.05
2019-01-12T00:27:12.618Z,953.06
2019-01-12T00:28:12.608Z,953.12
2019-01-12T00:29:12.598Z,953.15
2019-01-12T00:30:12.584Z,953.18
2019-01-12T00:31:12.572Z,953.23
2019-01-12T00:32:12.560Z,953.19
2019-01-12T00:33:12.548Z,953.21
2019-01-12T00:34:12.535Z,953.20
2019-01-12T00:35:12.532Z,953.29
2019-01-12T00:36:12.515Z,953.17
2019-01-12T00:37:12.500Z,953.20
2019-01-12T00:38:12.494Z,953.23
2019-01-12T00:39:12.495Z,953.25
2019-01-12T00:40:12.466Z,953.26
2019-01-12T00:41:13.738Z,953.26
2019-01-12T00:42:12.439Z,953.24
2019-01-12T00:43:12.427Z,953.31
2019-01-12T00:44:12.418Z,953.25
2019-01-12T00:45:12.408Z,953.29
2019-01-12T00:46:12.396Z,953.34
2019-01-12T00:47:12.387Z,953.30
2019-01-12T00:48:12.385Z,953.24
2019-01-12T00:49:12.408Z,953.29
2019-01-12T00:50:12.361Z,953.24
2019-01-12T00:51:12.338Z,953.24
2019-01-12T00:52:12.317Z,953.24
2019-01-12T00:53:12.315Z,953.26
2019-01-12T00:54:12.337Z,953.23
2019-01-12T00:55:12.290Z,953.29
2019-01-12T00:56:12.284Z,953.24
2019-01-12T00:57:12.270Z,953.21
2019-01-12T00:58:12.256Z,953.22
2019-01-12T00:59:12.246Z,953.25
2019-01-12T01:00:12.234Z,953.21
2019-01-12T01:01:12.222Z,953.21
2019-01-12T01:02:12.222Z,953.21
2019-01-12T01:03:12.200Z,953.22
2019-01-12T01:04:12.186Z,953.28
2019-01-12T01:05:12.177Z,953.25
2019-01-12T01:06:12.163Z,953.28
2019-01-12T01:07:12.155Z,953.27
2019-01-12T01:08:12.182Z,953.27
2019-01-12T01:09:12.129Z,953.24
2019-01-12T01:10:12.108Z,953.29
2019-01-12T01:11:12.107Z,953.28
2019-01-12T01:12:12.108Z,953.30
2019-01-12T01:13:12.084Z,953.35
2019-01-12T01:14:12.071Z,953.35
2019-01-12T01:15:12.067Z,953.38
2019-01-12T01:16:12.042Z,953.41
2019-01-12T01:17:12.033Z,953.41
2019-01-12T01:18:12.023Z,953.42
2019-01-12T01:19:12.016Z,953.40
2019-01-12T01:20:12.003Z,953.43
2019-01-12T01:21:11.980Z,953.43
2019-01-12T01:22:11.978Z,953.38
2019-01-12T01:23:11.974Z,953.43
2019-01-12T01:24:11.956Z,953.43
2019-01-12T01:25:11.956Z,953.42
2019-01-12T01:26:11.936Z,953.39
2019-01-12T01:27:11.914Z,953.37
2019-01-12T01:28:11.911Z,953.38
2019-01-12T01:29:11.901Z,953.41
2019-01-12T01:30:11.900Z,953.43
2019-01-12T01:31:11.876Z,953.46
2019-01-12T01:32:11.865Z,953.47
2019-01-12T01:33:11.848Z,953.47
2019-01-12T01:34:11.850Z,953.49
2019-01-12T01:35:11.828Z,953.50
2019-01-12T01:36:11.820Z,953.49
2019-01-12T01:37:11.806Z,953.48
2019-01-12T01:38:11.796Z,953.44
2019-01-12T01:39:11.785Z,953.45
2019-01-12T01:40:11.773Z,953.47
2019-01-12T01:41:11.761Z,953.47
2019-01-12T01:42:11.748Z,953.51
2019-01-12T01:43:11.738Z,953.51
2019-01-12T01:44:11.728Z,953.53
2019-01-12T01:45:11.722Z,953.55
2019-01-12T01:46:11.702Z,953.59
2019-01-12T01:47:11.695Z,953.55
2019-01-12T01:48:11.686Z,953.57
2019-01-12T01:49:11.713Z,953.56
2019-01-12T01:50:11.655Z,953.50
2019-01-12T01:51:11.650Z,953.60
2019-01-12T01:52:11.643Z,953.50
2019-01-12T01:53:11.629Z,953.51
2019-01-12T01:54:11.610Z,953.54
2019-01-12T01:55:11.592Z,953.56
2019-01-12T01:56:11.587Z,953.51
2019-01-12T01:57:11.575Z,953.51
2019-01-12T01:58:11.569Z,953.54
2019-01-12T01:59:11.556Z,953.58
2019-01-12T02:00:11.542Z,953.52
2019-01-12T02:01:11.528Z,953.49
2019-01-12T02:02:11.517Z,953.54
2019-01-12T02:03:11.510Z,953.53
2019-01-12T02:04:11.502Z,953.56
2019-01-12T02:05:11.489Z,953.56
2019-01-12T02:06:11.473Z,953.57
2019-01-12T02:07:11.463Z,953.54
2019-01-12T02:08:11.472Z,953.57
2019-01-12T02:09:11.442Z,953.60
2019-01-12T02:10:11.427Z,953.58
2019-01-12T02:11:11.407Z,953.57
2019-01-12T02:12:11.400Z,953.53
2019-01-12T02:13:11.388Z,953.55
2019-01-12T02:14:11.380Z,953.62
2019-01-12T02:15:11.371Z,953.61
2019-01-12T02:16:11.423Z,953.62
2019-01-12T02:17:11.346Z,953.59
2019-01-12T02:18:11.335Z,953.63
2019-01-12T02:19:11.323Z,953.63
2019-01-12T02:20:11.312Z,953.66
2019-01-12T02:21:11.304Z,953.63
2019-01-12T02:22:11.288Z,953.61
2019-01-12T02:23:11.278Z,953.61
2019-01-12T02:24:11.268Z,953.66
2019-01-12T02:25:11.258Z,953.61
2019-01-12T02:26:11.240Z,953.59
2019-01-12T02:27:11.232Z,953.65
2019-01-12T02:28:11.226Z,953.65
2019-01-12T02:29:11.209Z,953.62
2019-01-12T02:30:11.198Z,953.63
2019-01-12T02:31:11.188Z,953.58
2019-01-12T02:32:11.176Z,953.58
2019-01-12T02:33:11.212Z,953.61
2019-01-12T02:34:11.151Z,953.57
2019-01-12T02:35:11.141Z,953.58
2019-01-12T02:36:11.168Z,953.60
2019-01-12T02:37:11.121Z,953.59
2019-01-12T02:38:11.105Z,953.57
2019-01-12T02:39:11.102Z,953.58
2019-01-12T02:40:11.086Z,953.53
2019-01-12T02:41:11.074Z,953.51
2019-01-12T02:42:11.061Z,953.52
2019-01-12T02:43:11.049Z,953.50
2019-01-12T02:44:11.041Z,953.48
2019-01-12T02:45:11.028Z,953.45
2019-01-12T02:46:11.014Z,953.46
2019-01-12T02:47:11.005Z,953.48
2019-01-12T02:48:10.992Z,953.43
2019-01-12T02:49:10.981Z,953.45
2019-01-12T02:50:10.970Z,953.43
2019-01-12T02:51:10.958Z,953.47
2019-01-12T02:52:10.949Z,953.46
2019-01-12T02:53:10.938Z,953.43
2019-01-12T02:54:10.924Z,953.46
2019-01-12T02:55:10.913Z,953.45
2019-01-12T02:56:10.902Z,953.47
2019-01-12T02:57:10.888Z,953.47
2019-01-12T02:58:10.880Z,953.49
2019-01-12T02:59:10.869Z,953.50
2019-01-12T03:00:10.858Z,953.48
2019-01-12T03:01:10.845Z,953.47
2019-01-12T03:02:10.835Z,953.46
2019-01-12T03:03:10.825Z,953.36
2019-01-12T03:04:10.812Z,953.40
2019-01-12T03:05:10.799Z,953.37
2019-01-12T03:06:10.789Z,953.40
2019-01-12T03:07:10.778Z,953.44
2019-01-12T03:08:10.761Z,953.44
2019-01-12T03:09:10.755Z,953.42
2019-01-12T03:10:10.739Z,953.43
2019-01-12T03:11:10.732Z,953.45
2019-01-12T03:12:10.720Z,953.45
2019-01-12T03:13:10.711Z,953.41
2019-01-12T03:14:10.724Z,953.45
2019-01-12T03:15:10.687Z,953.45
2019-01-12T03:16:10.672Z,953.44
2019-01-12T03:17:10.664Z,953.38
2019-01-12T03:18:10.651Z,953.43
2019-01-12T03:19:10.634Z,953.39
2019-01-12T03:20:10.628Z,953.38
2019-01-12T03:21:10.616Z,953.39
2019-01-12T03:22:10.604Z,953.39
2019-01-12T03:23:10.595Z,953.36
2019-01-12T03:24:10.584Z,953.32
2019-01-12T03:25:17.929Z,953.33
2019-01-12T03:26:10.561Z,953.36
2019-01-12T03:27:10.549Z,953.41
2019-01-12T03:28:10.538Z,953.42
2019-01-12T03:29:10.528Z,953.38
2019-01-12T03:30:10.519Z,953.42
2019-01-12T03:31:10.536Z,953.41
2019-01-12T03:32:10.502Z,953.39
2019-01-12T03:33:10.480Z,953.43
2019-01-12T03:34:10.471Z,953.42
2019-01-12T03:35:10.458Z,953.43
2019-01-12T03:36:10.447Z,953.45
2019-01-12T03:37:10.436Z,953.43
2019-01-12T03:38:10.422Z,953.42
2019-01-12T03:39:10.419Z,953.41
2019-01-12T03:40:10.402Z,953.38
2019-01-12T03:41:10.381Z,953.35
2019-01-12T03:42:10.379Z,953.35
2019-01-12T03:43:10.382Z,953.34
2019-01-12T03:44:10.356Z,953.30
2019-01-12T03:45:10.342Z,953.36
2019-01-12T03:46:10.329Z,953.37
2019-01-12T03:47:10.321Z,953.31
2019-01-12T03:48:10.309Z,953.37
2019-01-12T03:49:10.304Z,953.35
2019-01-12T03:50:10.293Z,953.37
2019-01-12T03:51:10.274Z,953.32
2019-01-12T03:52:10.267Z,953.32
2019-01-12T03:53:10.249Z,953.31
2019-01-12T03:54:10.242Z,953.34
2019-01-12T03:55:10.231Z,953.33
2019-01-12T03:56:10.218Z,953.32
2019-01-12T03:57:10.273Z,953.28
2019-01-12T03:58:10.197Z,953.28
2019-01-12T03:59:10.178Z,953.29
2019-01-12T04:00:10.186Z,953.23
2019-01-12T04:01:10.163Z,953.22
2019-01-12T04:02:10.155Z,953.20
2019-01-12T04:03:10.144Z,953.15
2019-01-12T04:04:10.127Z,953.20
2019-01-12T04:05:10.123Z,953.15
2019-01-12T04:06:10.109Z,953.17
2019-01-12T04:07:10.093Z,953.15
2019-01-12T04:08:10.083Z,953.17
2019-01-12T04:09:10.073Z,953.16
2019-01-12T04:10:10.061Z,953.14
2019-01-12T04:11:10.054Z,953.12
2019-01-12T04:12:10.037Z,953.17
2019-01-12T04:13:10.021Z,953.14
2019-01-12T04:14:10.006Z,953.18
2019-01-12T04:15:10.003Z,953.16
2019-01-12T04:16:09.994Z,953.19
2019-01-12T04:17:09.995Z,953.15
2019-01-12T04:18:09.968Z,953.15
2019-01-12T04:19:09.957Z,953.12
2019-01-12T04:20:09.973Z,953.15
2019-01-12T04:21:09.931Z,953.16
2019-01-12T04:22:09.925Z,953.17
2019-01-12T04:23:09.914Z,953.13
2019-01-12T04:24:09.900Z,953.09
2019-01-12T04:25:09.889Z,953.07
2019-01-12T04:26:09.879Z,953.05
2019-01-12T04:27:09.869Z,952.99
2019-01-12T04:28:09.861Z,953.03
2019-01-12T04:29:09.846Z,953.06
2019-01-12T04:30:09.832Z,953.02
2019-01-12T04:31:09.821Z,952.95
2019-01-12T04:32:09.804Z,952.97
2019-01-12T04:33:09.795Z,952.93
2019-01-12T04:34:09.789Z,952.90
2019-01-12T04:35:09.815Z,952.87
2019-01-12T04:36:09.765Z,952.89
2019-01-12T04:37:09.752Z,952.91
2019-01-12T04:38:10.498Z,952.94
2019-01-12T04:39:09.737Z,952.87
2019-01-12T04:40:09.719Z,952.93
2019-01-12T04:41:09.711Z,952.92
2019-01-12T04:42:09.697Z,952.96
2019-01-12T04:43:09.685Z,952.97
2019-01-12T04:44:09.673Z,953.00
2019-01-12T04:45:09.674Z,952.94
2019-01-12T04:46:09.651Z,952.92
2019-01-12T04:47:09.636Z,952.96
2019-01-12T04:48:09.627Z,952.91
2019-01-12T04:49:09.617Z,952.96
2019-01-12T04:50:09.604Z,953.02
2019-01-12T04:51:09.596Z,952.97
2019-01-12T04:52:09.593Z,952.98
2019-01-12T04:53:09.570Z,952.99
2019-01-12T04:54:09.566Z,952.99
2019-01-12T04:55:09.547Z,953.01
2019-01-12T04:56:09.542Z,953.02
2019-01-12T04:57:09.527Z,952.97
2019-01-12T04:58:09.519Z,952.90
2019-01-12T04:59:09.533Z,952.87
2019-01-12T05:00:09.497Z,952.93
2019-01-12T05:01:09.481Z,952.96
2019-01-12T05:02:09.469Z,952.95
2019-01-12T05:03:09.456Z,952.95
2019-01-12T05:04:09.446Z,952.97
2019-01-12T05:05:09.426Z,952.96
2019-01-12T05:06:09.420Z,952.93
2019-01-12T05:07:09.409Z,953.00
2019-01-12T05:08:09.401Z,952.95
2019-01-12T05:09:09.390Z,952.97
2019-01-12T05:10:09.376Z,953.00
2019-01-12T05:11:09.367Z,953.00
2019-01-12T05:12:09.354Z,953.00
2019-01-12T05:13:09.343Z,952.95
2019-01-12T05:14:09.332Z,952.95
2019-01-12T05:15:09.316Z,952.98
2019-01-12T05:16:09.310Z,953.01
2019-01-12T05:17:09.296Z,953.05
2019-01-12T05:18:09.290Z,953.04
2019-01-12T05:19:09.275Z,953.04
2019-01-12T05:20:09.265Z,953.02
2019-01-12T05:21:09.252Z,952.99
2019-01-12T05:22:09.243Z,952.98
2019-01-12T05:23:09.227Z,952.96
2019-01-12T05:24:09.224Z,952.97
2019-01-12T05:25:09.248Z,952.98
2019-01-12T05:26:09.193Z,952.93
2019-01-12T05:27:09.184Z,952.93
2019-01-12T05:28:09.167Z,952.92
2019-01-12T05:29:09.210Z,952.94
2019-01-12T05:30:09.147Z,952.91
2019-01-12T05:31:09.141Z,952.95
2019-01-12T05:32:09.120Z,952.88
2019-01-12T05:33:09.106Z,952.90
2019-01-12T05:34:09.100Z,952.98
2019-01-12T05:35:09.089Z,952.94
2019-01-12T05:36:09.081Z,952.92
2019-01-12T05:37:09.071Z,952.94
2019-01-12T05:38:09.060Z,952.96
2019-01-12T05:39:09.043Z,952.90
2019-01-12T05:40:09.034Z,952.95
2019-01-12T05:41:09.023Z,952.94
2019-01-12T05:42:09.010Z,952.97
2019-01-12T05:43:09.001Z,953.02
2019-01-12T05:44:09.009Z,953.01
2019-01-12T05:45:08.976Z,953.03
2019-01-12T05:46:08.969Z,952.94
2019-01-12T05:47:08.956Z,952.94
2019-01-12T05:48:08.943Z,952.87
2019-01-12T05:49:08.933Z,952.91
2019-01-12T05:50:08.914Z,952.94
2019-01-12T05:51:08.909Z,952.88
2019-01-12T05:52:08.898Z,952.82
2019-01-12T05:53:08.887Z,952.86
2019-01-12T05:54:08.875Z,952.87
2019-01-12T05:55:08.907Z,952.91
2019-01-12T05:56:08.852Z,952.89
2019-01-12T05:57:08.844Z,952.88
2019-01-12T05:58:08.828Z,952.90
2019-01-12T05:59:08.819Z,952.96
2019-01-12T06:00:08.805Z,952.95
2019-01-12T06:01:08.991Z,952.96
2019-01-12T06:02:08.782Z,953.00
2019-01-12T06:03:08.767Z,953.03
2019-01-12T06:04:08.761Z,953.07
2019-01-12T06:05:08.755Z,953.00
2019-01-12T06:06:08.737Z,953.06
2019-01-12T06:07:08.725Z,953.09
2019-01-12T06:08:08.728Z,953.10
2019-01-12T06:09:08.704Z,953.07
2019-01-12T06:10:08.695Z,953.08
2019-01-12T06:11:08.682Z,953.11
2019-01-12T06:12:08.669Z,953.13
2019-01-12T06:13:08.664Z,953.13
2019-01-12T06:14:08.646Z,953.11
2019-01-12T06:15:08.635Z,953.12
2019-01-12T06:16:08.623Z,953.09
2019-01-12T06:17:08.613Z,953.11
2019-01-12T06:18:08.598Z,953.18
2019-01-12T06:19:08.641Z,953.08
2019-01-12T06:20:08.577Z,953.10
2019-01-12T06:21:08.619Z,953.11
2019-01-12T06:22:08.557Z,953.13
2019-01-12T06:23:08.546Z,953.08
2019-01-12T06:24:08.524Z,953.08
2019-01-12T06:25:08.531Z,953.13
2019-01-12T06:26:08.509Z,953.09
2019-01-12T06:27:08.500Z,953.10
2019-01-12T06:28:08.491Z,953.16
2019-01-12T06:29:08.475Z,953.12
2019-01-12T06:30:08.464Z,953.16
2019-01-12T06:31:08.452Z,953.12
2019-01-12T06:32:08.441Z,953.14
2019-01-12T06:33:08.429Z,953.15
2019-01-12T06:34:08.422Z,953.10
2019-01-12T06:35:08.408Z,953.09
2019-01-12T06:36:08.409Z,953.10
2019-01-12T06:37:08.385Z,953.11
2019-01-12T06:38:08.371Z,953.07
2019-01-12T06:39:08.368Z,953.08
2019-01-12T06:40:08.351Z,953.07
2019-01-12T06:41:08.340Z,953.10
2019-01-12T06:42:08.331Z,953.10
2019-01-12T06:43:08.319Z,953.05
2019-01-12T06:44:08.307Z,953.07
2019-01-12T06:45:08.294Z,953.04
2019-01-12T06:46:08.279Z,953.11
2019-01-12T06:47:08.281Z,953.07
2019-01-12T06:48:08.258Z,953.09
2019-01-12T06:49:08.247Z,953.11
2019-01-12T06:50:08.235Z,953.11
2019-01-12T06:51:08.229Z,953.09
2019-01-12T06:52:08.214Z,953.07
2019-01-12T06:53:08.222Z,953.08
2019-01-12T06:54:08.190Z,953.09
2019-01-12T06:55:08.179Z,953.10
2019-01-12T06:56:10.960Z,953.06
2019-01-12T06:57:08.158Z,953.11
2019-01-12T06:58:08.142Z,953.08
2019-01-12T06:59:08.135Z,953.12
2019-01-12T07:00:08.121Z,953.08
2019-01-12T07:01:08.112Z,953.09
2019-01-12T07:02:08.103Z,953.10
2019-01-12T07:03:08.090Z,953.11
2019-01-12T07:04:08.075Z,953.12
2019-01-12T07:05:08.066Z,953.14
2019-01-12T07:06:08.054Z,953.08
2019-01-12T07:07:08.043Z,953.13
2019-01-12T07:08:08.038Z,953.09
2019-01-12T07:09:08.016Z,953.08
2019-01-12T07:10:08.007Z,953.09
2019-01-12T07:11:07.998Z,953.07
2019-01-12T07:12:07.988Z,953.08
2019-01-12T07:13:07.978Z,953.10
2019-01-12T07:14:07.963Z,953.14
2019-01-12T07:15:07.950Z,953.11
2019-01-12T07:16:07.940Z,953.12
2019-01-12T07:17:07.933Z,953.15
2019-01-12T07:18:08.932Z,953.10
2019-01-12T07:19:07.910Z,953.12
2019-01-12T07:20:07.899Z,953.12
2019-01-12T07:21:07.885Z,953.14
2019-01-12T07:22:07.876Z,953.15
2019-01-12T07:23:07.868Z,953.16
2019-01-12T07:24:07.855Z,953.16
2019-01-12T07:25:07.840Z,953.20
2019-01-12T07:26:07.830Z,953.20
2019-01-12T07:27:07.817Z,953.21
2019-01-12T07:28:07.807Z,953.24
2019-01-12T07:29:07.794Z,953.17
2019-01-12T07:30:07.783Z,953.21
2019-01-12T07:31:07.761Z,953.21
2019-01-12T07:32:07.758Z,953.24
2019-01-12T07:33:07.760Z,953.25
2019-01-12T07:34:07.738Z,953.29
2019-01-12T07:35:07.726Z,953.28
2019-01-12T07:36:07.716Z,953.28
2019-01-12T07:37:07.706Z,953.23
2019-01-12T07:38:07.694Z,953.23
2019-01-12T07:39:07.693Z,953.26
2019-01-12T07:40:07.674Z,953.28
2019-01-12T07:41:07.662Z,953.24
2019-01-12T07:42:07.654Z,953.31
2019-01-12T07:43:07.639Z,953.30
2019-01-12T07:44:07.625Z,953.28
2019-01-12T07:45:07.618Z,953.29
2019-01-12T07:46:07.602Z,953.34
2019-01-12T07:47:07.593Z,953.28
2019-01-12T07:48:07.583Z,953.28
2019-01-12T07:49:07.570Z,953.29
2019-01-12T07:50:07.558Z,953.30
2019-01-12T07:51:07.546Z,953.27
2019-01-12T07:52:07.536Z,953.31
2019-01-12T07:53:07.526Z,953.32
2019-01-12T07:54:07.517Z,953.35
2019-01-12T07:55:07.503Z,953.35
2019-01-12T07:56:07.492Z,953.36
2019-01-12T07:57:07.480Z,953.38
2019-01-12T07:58:07.470Z,953.40
2019-01-12T07:59:07.459Z,953.35
2019-01-12T08:00:07.566Z,953.39
2019-01-12T08:01:07.436Z,953.43
2019-01-12T08:02:07.430Z,953.38
2019-01-12T08:03:07.412Z,953.35
2019-01-12T08:04:07.409Z,953.33
2019-01-12T08:05:07.394Z,953.37
2019-01-12T08:06:07.380Z,953.34
2019-01-12T08:07:07.370Z,953.33
2019-01-12T08:08:07.363Z,953.34
2019-01-12T08:09:07.347Z,953.35
2019-01-12T08:10:07.335Z,953.39
2019-01-12T08:11:07.323Z,953.37
2019-01-12T08:12:07.310Z,953.39
2019-01-12T08:13:07.303Z,953.39
2019-01-12T08:14:07.290Z,953.40
2019-01-12T08:15:07.280Z,953.44
2019-01-12T08:16:07.270Z,953.42
2019-01-12T08:17:07.258Z,953.42
2019-01-12T08:18:07.247Z,953.45
2019-01-12T08:19:07.236Z,953.44
2019-01-12T08:20:07.229Z,953.51
2019-01-12T08:21:07.213Z,953.48
2019-01-12T08:22:07.203Z,953.54
2019-01-12T08:23:07.190Z,953.53
2019-01-12T08:24:07.180Z,953.52
2019-01-12T08:25:07.170Z,953.52
2019-01-12T08:26:07.157Z,953.50
2019-01-12T08:27:07.150Z,953.48
2019-01-12T08:28:07.144Z,953.47
2019-01-12T08:29:07.125Z,953.47
2019-01-12T08:30:07.113Z,953.46
2019-01-12T08:31:07.101Z,953.45
2019-01-12T08:32:07.092Z,953.43
2019-01-12T08:33:07.085Z,953.46
2019-01-12T08:34:07.072Z,953.41
2019-01-12T08:35:07.059Z,953.42
2019-01-12T08:36:07.041Z,953.41
2019-01-12T08:37:07.037Z,953.46
2019-01-12T08:38:07.027Z,953.46
2019-01-12T08:39:07.022Z,953.49
2019-01-12T08:40:07.004Z,953.49
2019-01-12T08:41:06.994Z,953.51
2019-01-12T08:42:06.973Z,953.48
2019-01-12T08:43:06.972Z,953.51
2019-01-12T08:44:06.960Z,953.50
2019-01-12T08:45:06.945Z,953.50
2019-01-12T08:46:06.940Z,953.48
2019-01-12T08:47:06.949Z,953.49
2019-01-12T08:48:06.916Z,953.47
2019-01-12T08:49:06.907Z,953.53
2019-01-12T08:50:06.893Z,953.50
2019-01-12T08:51:06.883Z,953.48
2019-01-12T08:52:06.872Z,953.49
2019-01-12T08:53:06.862Z,953.47
2019-01-12T08:54:06.849Z,953.49
2019-01-12T08:55:06.839Z,953.50
2019-01-12T08:56:06.829Z,953.47
2019-01-12T08:57:06.808Z,953.45
2019-01-12T08:58:06.806Z,953.42
2019-01-12T08:59:06.794Z,953.47
2019-01-12T09:00:06.785Z,953.46
2019-01-12T09:01:06.774Z,953.45
2019-01-12T09:02:06.810Z,953.44
2019-01-12T09:03:06.751Z,953.45
2019-01-12T09:04:06.734Z,953.39
2019-01-12T09:05:06.730Z,953.41
2019-01-12T09:06:06.719Z,953.37
2019-01-12T09:07:06.708Z,953.40
2019-01-12T09:08:06.697Z,953.38
2019-01-12T09:09:06.686Z,953.45
2019-01-12T09:10:06.676Z,953.43
2019-01-12T09:11:06.673Z,953.43
2019-01-12T09:12:06.666Z,953.40
2019-01-12T09:13:06.644Z,953.39
2019-01-12T09:14:06.634Z,953.42
2019-01-12T09:15:06.625Z,953.46
2019-01-12T09:16:06.611Z,953.41
2019-01-12T09:17:06.600Z,953.40
2019-01-12T09:18:06.589Z,953.38
2019-01-12T09:19:06.578Z,953.42
2019-01-12T09:20:06.568Z,953.41
2019-01-12T09:21:06.560Z,953.40
2019-01-12T09:22:07.943Z,953.37
2019-01-12T09:23:06.535Z,953.39
2019-01-12T09:24:06.529Z,953.34
2019-01-12T09:25:06.514Z,953.35
2019-01-12T09:26:06.503Z,953.33
2019-01-12T09:27:06.491Z,953.36
2019-01-12T09:28:06.526Z,953.33
2019-01-12T09:29:06.474Z,953.28
2019-01-12T09:30:06.463Z,953.30
2019-01-12T09:31:06.449Z,953.30
2019-01-12T09:32:06.437Z,953.27
2019-01-12T09:33:06.429Z,953.26
2019-01-12T09:34:06.411Z,953.25
2019-01-12T09:35:06.410Z,953.29
2019-01-12T09:36:06.401Z,953.34
2019-01-12T09:37:06.433Z,953.33
2019-01-12T09:38:06.374Z,953.24
2019-01-12T09:39:06.365Z,953.26
2019-01-12T09:40:06.353Z,953.22
2019-01-12T09:41:06.390Z,953.27
2019-01-12T09:42:06.333Z,953.26
2019-01-12T09:43:06.322Z,953.29
2019-01-12T09:44:06.310Z,953.30
2019-01-12T09:45:06.301Z,953.29
2019-01-12T09:46:06.290Z,953.31
2019-01-12T09:47:06.278Z,953.26
2019-01-12T09:48:06.271Z,953.30
2019-01-12T09:49:06.258Z,953.31
2019-01-12T09:50:06.251Z,953.24
2019-01-12T09:51:06.240Z,953.20
2019-01-12T09:52:06.226Z,953.19
2019-01-12T09:53:06.235Z,953.22
2019-01-12T09:54:06.206Z,953.24
2019-01-12T09:55:06.195Z,953.21
2019-01-12T09:56:06.185Z,953.24
2019-01-12T09:57:06.175Z,953.20
2019-01-12T09:58:06.160Z,953.16
2019-01-12T09:59:06.152Z,953.13
2019-01-12T10:00:06.143Z,953.08
2019-01-12T10:01:06.134Z,953.12
2019-01-12T10:02:06.123Z,953.10
2019-01-12T10:03:06.115Z,953.08
2019-01-12T10:04:06.103Z,953.07
2019-01-12T10:05:06.094Z,953.11
2019-01-12T10:06:06.081Z,953.16
2019-01-12T10:07:06.072Z,953.07
2019-01-12T10:08:06.060Z,953.09
2019-01-12T10:09:06.051Z,953.09
2019-01-12T10:10:06.042Z,953.10
2019-01-12T10:11:06.030Z,953.11
2019-01-12T10:12:06.018Z,953.10
2019-01-12T10:13:06.007Z,953.09
2019-01-12T10:14:06.002Z,953.11
2019-01-12T10:15:05.992Z,953.06
2019-01-12T10:16:05.974Z,953.08
2019-01-12T10:17:05.969Z,953.05
2019-01-12T10:18:05.959Z,953.10
2019-01-12T10:19:05.949Z,953.04
2019-01-12T10:20:05.939Z,953.09
2019-01-12T10:21:05.929Z,953.04
2019-01-12T10:22:05.918Z,953.08
2019-01-12T10:23:05.913Z,953.11
2019-01-12T10:24:05.927Z,953.16
2019-01-12T10:25:05.888Z,953.12
2019-01-12T10:26:05.877Z,953.16
2019-01-12T10:27:05.865Z,953.10
2019-01-12T10:28:05.856Z,953.15
2019-01-12T10:29:05.847Z,953.12
2019-01-12T10:30:05.840Z,953.06
2019-01-12T10:31:05.829Z,953.10
2019-01-12T10:32:05.814Z,953.07
2019-01-12T10:33:05.807Z,953.02
2019-01-12T10:34:05.793Z,953.02
2019-01-12T10:35:05.807Z,952.99
2019-01-12T10:36:05.773Z,952.97
2019-01-12T10:37:05.764Z,952.90
2019-01-12T10:38:05.753Z,952.97
2019-01-12T10:39:05.743Z,952.96
2019-01-12T10:40:05.732Z,952.90
2019-01-12T10:41:05.722Z,952.92
2019-01-12T10:42:05.714Z,952.92
2019-01-12T10:43:05.702Z,952.96
2019-01-12T10:44:05.700Z,952.91
2019-01-12T10:45:05.683Z,952.89
2019-01-12T10:46:05.671Z,952.91
2019-01-12T10:47:05.665Z,952.91
2019-01-12T10:48:05.653Z,952.97
2019-01-12T10:49:05.646Z,952.94
2019-01-12T10:50:05.633Z,952.95
2019-01-12T10:51:05.622Z,952.93
2019-01-12T10:52:05.612Z,952.93
2019-01-12T10:53:05.601Z,952.91
2019-01-12T10:54:05.591Z,952.84
2019-01-12T10:55:05.580Z,952.84
2019-01-12T10:56:05.570Z,952.80
2019-01-12T10:57:05.888Z,952.81
2019-01-12T10:58:05.549Z,952.83
2019-01-12T10:59:05.539Z,952.80
2019-01-12T11:00:05.534Z,952.78
2019-01-12T11:01:05.518Z,952.86
2019-01-12T11:02:05.547Z,952.81
2019-01-12T11:03:05.496Z,952.82
2019-01-12T11:04:05.492Z,952.77
2019-01-12T11:05:05.479Z,952.81
2019-01-12T11:06:05.468Z,952.76
2019-01-12T11:07:05.458Z,952.76
2019-01-12T11:08:05.448Z,952.76
2019-01-12T11:09:05.432Z,952.73
2019-01-12T11:10:05.427Z,952.80
2019-01-12T11:11:05.418Z,952.82
2019-01-12T11:12:05.406Z,952.83
2019-01-12T11:13:05.399Z,952.79
2019-01-12T11:14:05.386Z,952.79
2019-01-12T11:15:05.375Z,952.75
2019-01-12T11:16:05.367Z,952.74
2019-01-12T11:17:05.353Z,952.68
2019-01-12T11:18:05.345Z,952.64
2019-01-12T11:19:05.334Z,952.60
2019-01-12T11:20:05.327Z,952.64
2019-01-12T11:21:05.316Z,952.68
2019-01-12T11:22:05.304Z,952.70
2019-01-12T11:23:05.294Z,952.66
2019-01-12T11:24:05.286Z,952.66
2019-01-12T11:25:05.275Z,952.61
2019-01-12T11:26:05.264Z,952.63
2019-01-12T11:27:05.255Z,952.58
2019-01-12T11:28:05.243Z,952.58
2019-01-12T11:29:05.235Z,952.55
2019-01-12T11:30:05.224Z,952.57
2019-01-12T11:31:05.215Z,952.57
2019-01-12T11:32:05.203Z,952.58
2019-01-12T11:33:05.195Z,952.57
2019-01-12T11:34:05.183Z,952.55
2019-01-12T11:35:05.173Z,952.50
2019-01-12T11:36:05.165Z,952.49
2019-01-12T11:37:05.155Z,952.50
2019-01-12T11:38:05.147Z,952.45
2019-01-12T11:39:05.135Z,952.46
2019-01-12T11:40:05.158Z,952.45
2019-01-12T11:41:05.116Z,952.49
2019-01-12T11:42:05.102Z,952.44
2019-01-12T11:43:05.089Z,952.34
2019-01-12T11:44:05.087Z,952.26
2019-01-12T11:45:05.080Z,952.30
2019-01-12T11:46:05.066Z,952.18
2019-01-12T11:47:05.058Z,952.13
2019-01-12T11:48:05.047Z,952.15
2019-01-12T11:49:05.043Z,952.14
2019-01-12T11:50:05.032Z,952.12
2019-01-12T11:51:05.024Z,952.05
2019-01-12T11:52:05.003Z,952.04
2019-01-12T11:53:05.003Z,952.04
2019-01-12T11:54:04.989Z,952.01
2019-01-12T11:55:04.974Z,951.97
2019-01-12T11:56:04.982Z,952.01
2019-01-12T11:57:04.992Z,952.03
2019-01-12T11:58:04.944Z,951.96
2019-01-12T11:59:05.004Z,951.98
2019-01-12T12:00:05.011Z,951.99
2019-01-12T12:01:04.962Z,951.95
2019-01-12T12:02:04.914Z,951.93
2019-01-12T12:03:04.912Z,951.95
2019-01-12T12:04:04.896Z,951.95
2019-01-12T12:05:04.887Z,951.83
2019-01-12T12:06:04.875Z,951.86
2019-01-12T12:07:04.870Z,951.83
2019-01-12T12:08:04.856Z,951.81
2019-01-12T12:09:04.848Z,951.79
2019-01-12T12:10:04.841Z,951.74
2019-01-12T12:11:04.829Z,951.70
2019-01-12T12:12:04.829Z,951.64
2019-01-12T12:13:04.807Z,951.63
2019-01-12T12:14:04.796Z,951.63
2019-01-12T12:15:04.800Z,951.63
2019-01-12T12:16:04.777Z,951.65
2019-01-12T12:17:04.770Z,951.70
2019-01-12T12:18:04.761Z,951.77
2019-01-12T12:19:04.761Z,951.81
2019-01-12T12:20:04.736Z,951.84
2019-01-12T12:21:04.727Z,951.90
2019-01-12T12:22:04.715Z,951.90
2019-01-12T12:23:04.709Z,951.94
2019-01-12T12:24:04.694Z,951.89
2019-01-12T12:25:04.680Z,951.83
2019-01-12T12:26:04.672Z,951.77
2019-01-12T12:27:05.173Z,951.68
2019-01-12T12:28:04.659Z,951.66